Time;durP1;ratioP1;P1;durP2;ratioP2;P2;SDS_P1;SDS_P2;PMS_P1;PMS_P2;Temp;Humidity;BMP_temperature;BMP_pressure;BME280_temperature;BME280_humidity;BME280_pressure;Samples;Min_cycle;Max_cycle;Signal;HPM_P1;HPM_P2
2022/02/14 00:01:11;;;;;;;;;5.00;3.00;;;;;12.77;57.63;99849.53;5069726;28;49878;-67
2022/02/14 00:03:37;;;;;;;;;5.50;4.50;;;;;12.81;57.56;99837.22;5051782;28;49787;-67
2022/02/14 00:06:02;;;;;;;;;4.75;4.75;;;;;12.79;57.63;99820.53;5070273;28;49569;-67
2022/02/14 00:08:28;;;;;;;;;5.50;4.50;;;;;12.78;57.71;99831.97;5069856;28;50023;-67
2022/02/14 00:10:53;;;;;;;;;4.50;4.00;;;;;12.79;58.37;99818.78;5069921;28;49703;-67
2022/02/14 00:13:18;;;;;;;;;3.50;3.50;;;;;12.60;58.11;99793.38;5069983;28;49793;-67
2022/02/14 00:15:44;;;;;;;;;4.00;4.00;;;;;12.76;57.88;99831.97;5069862;28;49958;-67
2022/02/14 00:18:09;;;;;;;;;3.50;3.50;;;;;12.75;57.86;99824.97;5069533;27;49735;-67
2022/02/14 00:20:35;;;;;;;;;4.00;4.00;;;;;12.76;57.86;99815.28;5069872;28;49732;-67
2022/02/14 00:23:00;;;;;;;;;4.75;4.50;;;;;12.45;57.73;99778.53;5069951;28;49982;-67
2022/02/14 00:25:26;;;;;;;;;7.75;6.25;;;;;12.48;57.48;99769.75;5069817;28;49823;-67
2022/02/14 00:27:51;;;;;;;;;10.00;5.00;;;;;12.72;57.50;99822.31;5069360;28;49929;-67
2022/02/14 00:30:17;;;;;;;;;7.50;7.50;;;;;12.49;57.17;99777.63;5069635;28;49768;-67
2022/02/14 00:32:42;;;;;;;;;10.50;9.75;;;;;12.68;57.72;99801.28;5069597;28;49691;-68
2022/02/14 00:35:10;;;;;;;;;4.25;4.00;;;;;12.48;57.51;99783.78;5069740;28;50347;-67
2022/02/14 00:37:36;;;;;;;;;9.50;8.00;;;;;12.43;58.03;99777.63;5069357;28;50534;-67
2022/02/14 00:40:01;;;;;;;;;6.50;5.00;;;;;12.65;57.63;99815.34;5062929;28;49972;-67
2022/02/14 00:42:27;;;;;;;;;5.50;4.25;;;;;12.18;57.53;99736.47;5069525;28;49725;-67
2022/02/14 00:44:52;;;;;;;;;4.00;3.50;;;;;12.66;57.79;99798.66;5073193;28;50014;-67
2022/02/14 00:47:18;;;;;;;;;7.25;5.00;;;;;12.18;57.55;99733.84;5072400;28;49699;-67
2022/02/14 00:49:43;;;;;;;;;5.00;5.00;;;;;12.67;57.77;99800.41;5072878;28;49782;-67
2022/02/14 00:52:08;;;;;;;;;7.25;5.00;;;;;12.51;58.41;99767.97;5072945;28;49972;-67
2022/02/14 00:54:34;;;;;;;;;4.25;4.25;;;;;12.61;57.80;99777.59;5072953;27;49947;-67
2022/02/14 00:57:00;;;;;;;;;3.75;3.75;;;;;12.42;57.85;99740.78;5072726;28;51542;-67
2022/02/14 00:59:26;;;;;;;;;4.25;4.25;;;;;12.45;58.08;99754.84;5072785;28;49765;-67
2022/02/14 01:01:51;;;;;;;;;9.50;5.25;;;;;12.67;57.89;99789.00;5072548;28;49820;-67
2022/02/14 01:04:17;;;;;;;;;7.25;5.00;;;;;12.72;57.82;99784.56;5072994;28;50011;-67
2022/02/14 01:06:42;;;;;;;;;4.00;4.00;;;;;12.66;58.01;99774.06;5072371;28;50940;-67
2022/02/14 01:09:08;;;;;;;;;5.25;5.25;;;;;12.68;58.40;99769.69;5072525;27;49724;-67
2022/02/14 01:11:34;;;;;;;;;5.50;5.50;;;;;12.72;58.25;99780.19;5054338;28;49973;-67
2022/02/14 01:14:00;;;;;;;;;3.00;3.00;;;;;12.73;58.22;99767.88;5072556;27;49806;-67
2022/02/14 01:16:25;;;;;;;;;7.00;6.50;;;;;12.74;58.48;99778.44;5072006;28;51261;-67
2022/02/14 01:18:50;;;;;;;;;8.75;6.75;;;;;12.61;58.40;99755.66;5072237;28;49840;-68
2022/02/14 01:21:16;;;;;;;;;3.25;3.00;;;;;12.73;58.30;99778.41;5072355;27;49766;-67
2022/02/14 01:23:41;;;;;;;;;4.00;4.00;;;;;12.65;58.64;99764.44;5072570;27;49711;-67
2022/02/14 01:26:06;;;;;;;;;6.00;6.00;;;;;12.63;58.82;99745.09;5072297;28;50607;-68
2022/02/14 01:28:32;;;;;;;;;4.00;4.00;;;;;12.78;58.65;99767.00;5072186;28;49914;-67
2022/02/14 01:30:57;;;;;;;;;3.25;3.25;;;;;12.78;59.07;99753.81;5072015;28;50243;-67
2022/02/14 01:33:22;;;;;;;;;5.00;5.00;;;;;12.77;58.87;99778.41;5072547;28;49900;-67
2022/02/14 01:35:50;;;;;;;;;5.25;4.25;;;;;12.74;59.16;99759.09;5071921;28;50292;-67
2022/02/14 01:38:16;;;;;;;;;5.50;4.50;;;;;12.76;59.27;99738.94;5072125;27;49913;-67
2022/02/14 01:40:41;;;;;;;;;6.50;5.50;;;;;12.76;59.54;99726.63;5072112;28;49628;-67
2022/02/14 01:43:07;;;;;;;;;5.75;3.75;;;;;12.72;59.44;99740.69;5072125;28;49724;-67
2022/02/14 01:45:33;;;;;;;;;4.25;4.00;;;;;12.74;59.53;99738.03;5071712;27;50552;-67
2022/02/14 01:47:58;;;;;;;;;4.75;4.75;;;;;12.60;59.82;99731.06;5072034;27;49569;-67
2022/02/14 01:50:24;;;;;;;;;3.75;3.75;;;;;12.73;59.73;99741.53;5072085;28;49832;-67
2022/02/14 01:52:53;;;;;;;;;5.00;5.00;;;;;12.54;59.70;99710.03;5072010;28;50091;-68
2022/02/14 01:55:20;;;;;;;;;9.00;6.50;;;;;12.66;59.78;99718.78;5071579;28;50289;-67
2022/02/14 01:57:45;;;;;;;;;9.50;7.00;;;;;12.59;60.20;99713.53;5071687;28;49635;-67
2022/02/14 02:00:14;;;;;;;;;4.25;4.25;;;;;12.71;59.85;99733.66;5053597;28;50371;-67
2022/02/14 02:02:40;;;;;;;;;4.75;4.50;;;;;12.42;60.06;99689.03;5071755;28;49818;-67
2022/02/14 02:05:07;;;;;;;;;5.50;5.50;;;;;12.71;60.10;99722.25;5071462;28;49724;-67
2022/02/14 02:07:32;;;;;;;;;4.50;3.75;;;;;12.64;60.28;99716.13;5071833;28;49633;-67
2022/02/14 02:09:58;;;;;;;;;5.00;5.00;;;;;12.65;60.54;99725.81;5071658;28;49749;-67
2022/02/14 02:12:23;;;;;;;;;5.00;5.00;;;;;12.69;60.63;99721.41;5071843;28;49792;-68
2022/02/14 02:14:53;;;;;;;;;8.25;6.50;;;;;12.65;60.73;99711.78;5071300;28;50395;-67
2022/02/14 02:17:19;;;;;;;;;6.50;4.75;;;;;12.71;60.32;99717.88;5071223;28;49740;-67
2022/02/14 02:19:45;;;;;;;;;9.75;7.00;;;;;12.55;60.62;99690.75;5071360;27;49843;-67
2022/02/14 02:22:10;;;;;;;;;6.50;4.25;;;;;12.71;60.71;99732.78;5053221;28;50120;-67
2022/02/14 02:24:44;;;;;;;;;4.75;4.75;;;;;12.69;60.79;99739.81;5071489;28;50661;-67
2022/02/14 02:27:10;;;;;;;;;2.75;2.75;;;;;12.61;60.76;99727.56;5071363;28;49924;-68
2022/02/14 02:29:37;;;;;;;;;3.25;3.25;;;;;12.69;60.75;99731.94;5071184;28;50032;-67
2022/02/14 02:32:05;;;;;;;;;5.25;3.75;;;;;12.73;60.77;99739.78;5071236;28;49824;-68
2022/02/14 02:34:31;;;;;;;;;2.00;2.00;;;;;12.45;61.07;99694.28;5071010;28;49762;-68
2022/02/14 02:36:58;;;;;;;;;3.75;3.75;;;;;12.71;61.50;99715.22;5071387;28;49874;-68
2022/02/14 02:39:25;;;;;;;;;6.00;5.00;;;;;12.65;61.46;99715.28;5071190;28;49649;-67
2022/02/14 02:41:51;;;;;;;;;4.00;4.00;;;;;12.65;61.56;99704.75;5071292;28;49799;-67
2022/02/14 02:44:17;;;;;;;;;3.25;3.00;;;;;12.70;61.87;99721.38;5071033;28;51077;-67
2022/02/14 02:46:43;;;;;;;;;8.25;4.50;;;;;12.69;61.83;99719.63;5070675;28;49990;-67
2022/02/14 02:49:13;;;;;;;;;5.25;5.25;;;;;12.65;61.71;99711.78;5071069;28;49999;-67
2022/02/14 02:51:40;;;;;;;;;4.25;4.25;;;;;12.42;62.37;99683.75;5065182;28;49708;-67
2022/02/14 02:54:07;;;;;;;;;5.00;4.75;;;;;12.56;62.66;99678.44;5070830;28;49759;-67
2022/02/14 02:56:34;;;;;;;;;5.00;4.75;;;;;12.60;62.75;99691.59;5071000;27;49826;-67
2022/02/14 02:58:59;;;;;;;;;3.50;3.00;;;;;12.53;63.13;99696.88;5064185;28;49978;-67
2022/02/14 03:01:24;;;;;;;;;9.50;9.00;;;;;12.60;63.12;99703.88;5070737;28;49860;-67
2022/02/14 03:03:50;;;;;;;;;4.50;4.50;;;;;12.60;63.42;99701.25;5070721;28;50248;-67
2022/02/14 03:06:15;;;;;;;;;6.25;6.25;;;;;12.39;64.31;99675.88;5069922;28;49762;-67
2022/02/14 03:08:40;;;;;;;;;3.75;3.75;;;;;12.39;65.34;99689.03;5070901;28;50038;-67
2022/02/14 03:11:06;;;;;;;;;4.50;4.50;;;;;12.47;65.42;99682.00;5070870;28;49665;-67
2022/02/14 03:13:31;;;;;;;;;8.00;5.25;;;;;12.50;65.45;99699.53;5070490;28;53784;-67
2022/02/14 03:15:56;;;;;;;;;3.75;3.75;;;;;12.45;65.79;99715.34;5070320;28;49878;-68
2022/02/14 03:18:22;;;;;;;;;6.75;3.75;;;;;12.44;65.88;99708.31;5070547;28;49809;-68
2022/02/14 03:20:47;;;;;;;;;5.00;5.00;;;;;12.06;67.93;99660.19;5070910;28;49970;-67
2022/02/14 03:23:12;;;;;;;;;4.00;4.00;;;;;12.32;68.26;99716.25;5070397;28;49912;-67
2022/02/14 03:25:37;;;;;;;;;3.00;3.00;;;;;12.17;69.59;99724.22;5070504;27;49770;-68
2022/02/14 03:28:03;;;;;;;;;4.75;4.75;;;;;12.16;69.99;99730.31;5070410;28;49813;-68
2022/02/14 03:30:29;;;;;;;;;4.75;4.75;;;;;11.95;70.20;99705.81;5070258;28;49824;-67
2022/02/14 03:32:54;;;;;;;;;5.75;5.75;;;;;11.93;70.91;99727.75;5070345;28;50840;-67
2022/02/14 03:35:20;;;;;;;;;2.00;2.00;;;;;11.42;70.35;99684.81;5070486;28;49920;-67
2022/02/14 03:37:45;;;;;;;;;2.00;2.00;;;;;11.81;71.03;99726.00;5070349;28;50116;-67
2022/02/14 03:40:11;;;;;;;;;2.00;2.00;;;;;11.74;70.23;99726.84;5070584;27;49716;-67
2022/02/14 03:42:36;;;;;;;;;3.50;3.25;;;;;11.59;69.85;99688.31;5070128;28;49919;-67
2022/02/14 03:45:02;;;;;;;;;3.00;3.00;;;;;11.87;70.54;99739.16;5070275;27;49677;-67
2022/02/14 03:47:28;;;;;;;;;2.25;2.00;;;;;11.73;70.02;99735.59;5052034;28;49660;-67
2022/02/14 03:49:53;;;;;;;;;1.50;1.50;;;;;11.76;70.29;99747.00;5069516;28;50056;-67
2022/02/14 03:52:18;;;;;;;;;1.50;1.50;;;;;11.56;70.64;99732.09;5070083;28;49915;-67
2022/02/14 03:54:44;;;;;;;;;2.00;2.00;;;;;11.28;70.57;99716.31;5070199;28;49846;-67
2022/02/14 03:57:09;;;;;;;;;3.00;2.25;;;;;11.51;71.31;99789.94;5069972;28;49732;-67
2022/02/14 03:59:35;;;;;;;;;3.25;1.00;;;;;11.52;69.78;99806.56;5070230;27;50059;-67
2022/02/14 04:02:01;;;;;;;;;0.25;0.25;;;;;11.46;69.28;99837.22;5069607;28;49767;-67
2022/02/14 04:04:26;;;;;;;;;0.00;0.00;;;;;11.30;68.89;99835.44;5051670;28;49792;-67
2022/02/14 04:06:51;;;;;;;;;0.00;0.00;;;;;11.11;69.21;99815.22;5070207;28;50060;-67
2022/02/14 04:09:18;;;;;;;;;0.00;0.00;;;;;11.08;68.31;99846.72;5070038;28;49747;-67
2022/02/14 04:11:43;;;;;;;;;0.00;0.00;;;;;10.71;67.68;99791.44;5069905;28;49736;-67
2022/02/14 04:14:08;;;;;;;;;0.00;0.00;;;;;11.04;67.88;99865.97;5069657;28;49995;-67
2022/02/14 04:16:34;;;;;;;;;0.00;0.00;;;;;10.97;68.15;99862.44;5069767;28;50079;-67
2022/02/14 04:18:59;;;;;;;;;0.00;0.00;;;;;11.03;67.98;99890.50;5072315;27;50074;-67
2022/02/14 04:21:25;;;;;;;;;0.00;0.00;;;;;10.99;67.28;99886.06;5073219;28;50234;-67
2022/02/14 04:23:50;;;;;;;;;0.75;0.75;;;;;10.54;67.91;99820.22;5073525;27;49715;-67
2022/02/14 04:26:15;;;;;;;;;0.00;0.00;;;;;10.89;67.64;99893.03;5073448;28;50024;-67
2022/02/14 04:28:41;;;;;;;;;0.00;0.00;;;;;10.81;67.91;99895.63;5073237;28;49701;-68
2022/02/14 04:31:06;;;;;;;;;1.00;0.00;;;;;10.87;67.88;99900.00;5072898;28;50390;-68
2022/02/14 04:33:31;;;;;;;;;0.00;0.00;;;;;10.86;66.49;99906.13;5073372;28;49972;-68
2022/02/14 04:35:57;;;;;;;;;0.00;0.00;;;;;10.63;66.62;99871.88;5073334;28;49721;-67
2022/02/14 04:38:22;;;;;;;;;0.00;0.00;;;;;10.84;66.88;99913.13;5073390;28;49699;-67
2022/02/14 04:40:47;;;;;;;;;0.00;0.00;;;;;10.67;66.75;99894.66;5072789;27;50240;-68
2022/02/14 04:43:13;;;;;;;;;0.00;0.00;;;;;10.68;66.89;99908.66;5072981;28;49731;-67
2022/02/14 04:45:38;;;;;;;;;0.75;0.00;;;;;10.70;67.27;99913.03;5072695;28;49620;-68
2022/02/14 04:48:04;;;;;;;;;0.00;0.00;;;;;10.70;66.95;99912.16;5073217;28;49568;-67
2022/02/14 04:50:29;;;;;;;;;0.00;0.00;;;;;10.36;67.13;99875.19;5072851;27;50535;-67
2022/02/14 04:52:55;;;;;;;;;0.00;0.00;;;;;10.73;66.96;99939.31;5073004;28;49906;-68
2022/02/14 04:55:20;;;;;;;;;0.00;0.00;;;;;10.59;66.96;99915.59;5073037;28;50197;-67
2022/02/14 04:57:46;;;;;;;;;0.00;0.00;;;;;10.70;66.68;99941.91;5072957;27;49968;-67
2022/02/14 05:00:13;;;;;;;;;0.00;0.00;;;;;10.60;66.13;99926.97;5072313;28;49941;-67
2022/02/14 05:02:39;;;;;;;;;0.00;0.00;;;;;10.28;66.50;99877.75;5072906;28;49676;-67
2022/02/14 05:05:05;;;;;;;;;0.00;0.00;;;;;10.46;65.89;99932.13;5072721;27;49844;-67
2022/02/14 05:07:31;;;;;;;;;0.00;0.00;;;;;10.48;66.25;99954.00;5072792;28;50049;-67
2022/02/14 05:09:57;;;;;;;;;0.00;0.00;;;;;10.48;66.54;99953.13;5072609;28;50456;-68
2022/02/14 05:12:22;;;;;;;;;1.00;1.00;;;;;10.44;66.38;99949.59;5072330;27;49593;-70
2022/02/14 05:14:47;;;;;;;;;0.00;0.00;;;;;10.22;66.18;99930.16;5072578;28;49735;-67
2022/02/14 05:17:15;;;;;;;;;0.00;0.00;;;;;10.29;66.69;99952.06;5072491;28;49895;-67
2022/02/14 05:19:41;;;;;;;;;1.00;0.00;;;;;10.14;67.04;99929.19;5072281;27;50557;-67
2022/02/14 05:22:07;;;;;;;;;0.00;0.00;;;;;10.23;66.02;99960.78;5072476;28;49804;-67
2022/02/14 05:24:32;;;;;;;;;0.00;0.00;;;;;9.97;66.47;99938.63;5072478;28;49942;-67
2022/02/14 05:26:57;;;;;;;;;1.00;0.00;;;;;10.16;66.92;99981.66;5065811;28;49991;-67
2022/02/14 05:29:23;;;;;;;;;0.00;0.00;;;;;10.06;66.87;99979.81;5071538;28;50283;-67
2022/02/14 05:31:49;;;;;;;;;0.00;0.00;;;;;10.09;67.33;99990.31;5074020;28;49866;-67
2022/02/14 05:34:14;;;;;;;;;0.00;0.00;;;;;10.07;66.35;99989.44;5072424;28;49854;-67
2022/02/14 05:36:41;;;;;;;;;0.00;0.00;;;;;9.82;67.03;99962.06;5072199;27;49638;-67
2022/02/14 05:39:07;;;;;;;;;0.75;0.00;;;;;10.00;66.78;99999.84;5074885;28;50907;-66
2022/02/14 05:41:33;;;;;;;;;0.00;0.00;;;;;9.78;67.23;99983.88;5072101;28;50173;-75
2022/02/14 05:44:01;;;;;;;;;0.00;0.00;;;;;9.69;67.03;99982.00;5072093;27;49766;-63
2022/02/14 05:46:27;;;;;;;;;0.25;0.25;;;;;9.87;67.54;100011.06;5072019;28;49948;-63
2022/02/14 05:48:52;;;;;;;;;1.00;0.00;;;;;9.92;66.33;100024.22;5071946;27;50700;-62
2022/02/14 05:51:18;;;;;;;;;0.00;0.00;;;;;9.91;66.15;100027.69;5071872;27;49810;-68
2022/02/14 05:53:45;;;;;;;;;0.00;0.00;;;;;9.83;67.38;100030.22;5072190;28;49683;-64
2022/02/14 05:56:11;;;;;;;;;5.00;3.00;;;;;9.80;67.34;100040.69;5072125;28;49841;-67
2022/02/14 05:58:36;;;;;;;;;1.00;1.00;;;;;9.73;67.35;100038.84;5071816;28;49832;-61
2022/02/14 06:01:02;;;;;;;;;1.00;1.00;;;;;9.59;67.33;100028.19;5071781;28;49744;-63
2022/02/14 06:03:27;;;;;;;;;1.25;0.25;;;;;9.56;67.03;100029.91;5071913;28;50143;-64
2022/02/14 06:05:53;;;;;;;;;0.00;0.00;;;;;9.74;67.57;100066.81;5072237;27;49897;-65
2022/02/14 06:08:18;;;;;;;;;0.00;0.00;;;;;9.39;67.54;100016.56;5072840;27;50259;-64
2022/02/14 06:10:43;;;;;;;;;0.00;0.00;;;;;9.44;67.50;100031.47;5071554;28;49861;-65
2022/02/14 06:13:09;;;;;;;;;0.00;0.00;;;;;9.57;67.98;100050.88;5071900;28;49577;-64
2022/02/14 06:15:34;;;;;;;;;1.00;1.00;;;;;9.69;68.05;100079.84;5071474;28;49784;-65
2022/02/14 06:17:59;;;;;;;;;2.75;0.00;;;;;9.67;68.00;100072.84;5071460;27;50862;-64
2022/02/14 06:20:25;;;;;;;;;0.00;0.00;;;;;9.65;67.83;100085.94;5071615;28;50433;-63
2022/02/14 06:22:51;;;;;;;;;2.25;0.00;;;;;9.66;67.64;100092.94;5071591;28;50066;-64
2022/02/14 06:25:16;;;;;;;;;0.00;0.00;;;;;9.36;67.39;100051.47;5071806;28;49691;-65
2022/02/14 06:27:41;;;;;;;;;1.00;0.00;;;;;9.31;68.01;100039.16;5071008;28;50551;-68
2022/02/14 06:30:07;;;;;;;;;0.00;0.00;;;;;9.64;67.09;100096.38;5073808;27;49935;-69
2022/02/14 06:32:32;;;;;;;;;1.00;1.00;;;;;9.63;67.30;100107.72;5073681;27;49829;-66
2022/02/14 06:34:58;;;;;;;;;0.00;0.00;;;;;9.62;67.45;100113.81;5080995;27;49824;-66
2022/02/14 06:37:24;;;;;;;;;1.00;1.00;;;;;9.43;67.16;100083.84;5071184;28;50029;-65
2022/02/14 06:39:50;;;;;;;;;0.75;0.75;;;;;9.47;67.37;100090.91;5070691;28;49831;-65
2022/02/14 06:42:16;;;;;;;;;1.00;1.00;;;;;9.37;67.05;100083.78;5070381;28;50109;-65
2022/02/14 06:44:42;;;;;;;;;1.25;0.25;;;;;9.46;67.14;100113.63;5071423;27;49684;-66
2022/02/14 06:47:07;;;;;;;;;0.00;0.00;;;;;9.38;67.17;100107.38;5070730;28;51483;-66
2022/02/14 06:49:32;;;;;;;;;2.00;0.00;;;;;9.43;66.69;100118.78;5071001;28;49854;-66
2022/02/14 06:51:58;;;;;;;;;2.00;0.00;;;;;9.41;67.36;100117.88;5070973;28;49844;-66
2022/02/14 06:54:23;;;;;;;;;0.75;0.75;;;;;9.41;67.61;100125.75;5070990;28;49626;-65
2022/02/14 06:56:49;;;;;;;;;1.00;1.00;;;;;9.25;67.29;100105.41;5070793;28;49774;-67
2022/02/14 06:59:14;;;;;;;;;1.00;1.00;;;;;9.25;67.48;100097.53;5070459;28;49541;-65
2022/02/14 07:01:40;;;;;;;;;0.50;0.00;;;;;9.46;67.71;100146.78;5071163;27;50220;-69
2022/02/14 07:04:06;;;;;;;;;0.00;0.00;;;;;9.29;66.73;100122.94;5074734;27;50771;-69
2022/02/14 07:06:31;;;;;;;;;2.00;0.25;;;;;9.40;67.27;100147.56;5078123;27;51520;-66
2022/02/14 07:08:57;;;;;;;;;3.00;0.25;;;;;8.87;67.34;100070.75;5075770;27;50021;-65
2022/02/14 07:11:23;;;;;;;;;2.50;1.00;;;;;9.33;66.84;100156.19;5071576;27;49747;-65
2022/02/14 07:13:48;;;;;;;;;0.50;0.50;;;;;9.37;67.11;100162.38;5070783;28;49932;-66
2022/02/14 07:16:14;;;;;;;;;1.25;1.00;;;;;9.37;66.85;100167.59;5070496;28;50647;-67
2022/02/14 07:18:40;;;;;;;;;0.50;0.50;;;;;9.30;66.84;100150.91;5070251;28;49942;-67
2022/02/14 07:21:05;;;;;;;;;0.00;0.00;;;;;9.28;66.20;100154.34;5069648;27;49625;-64
2022/02/14 07:23:31;;;;;;;;;1.00;1.00;;;;;9.08;67.17;100120.88;5070566;28;49907;-64
2022/02/14 07:25:57;;;;;;;;;1.25;0.00;;;;;9.16;66.74;100134.94;5070147;28;50721;-65
2022/02/14 07:28:23;;;;;;;;;0.50;0.50;;;;;9.42;66.60;100181.63;5070065;27;49773;-64
2022/02/14 07:30:48;;;;;;;;;1.00;1.00;;;;;9.41;66.42;100187.75;5070209;28;49580;-64
2022/02/14 07:33:13;;;;;;;;;1.00;1.00;;;;;9.37;65.92;100183.31;5070596;28;49715;-64
2022/02/14 07:35:39;;;;;;;;;1.25;0.50;;;;;9.33;66.20;100174.50;5069351;27;49960;-64
2022/02/14 07:38:04;;;;;;;;;2.00;0.25;;;;;9.42;66.12;100187.75;5070017;28;49798;-63
2022/02/14 07:40:30;;;;;;;;;1.75;1.00;;;;;9.37;66.19;100183.31;5070294;28;49790;-63
2022/02/14 07:42:55;;;;;;;;;2.00;0.00;;;;;9.40;66.86;100197.34;5070505;28;49833;-64
2022/02/14 07:45:23;;;;;;;;;1.00;1.00;;;;;9.40;67.00;100193.84;5069872;28;50520;-63
2022/02/14 07:47:51;;;;;;;;;0.25;0.25;;;;;9.26;66.25;100184.84;5070407;28;49700;-63
2022/02/14 07:50:19;;;;;;;;;2.50;1.00;;;;;9.45;66.15;100219.25;5070487;28;49945;-62
2022/02/14 07:52:45;;;;;;;;;1.00;1.00;;;;;9.43;65.62;100215.72;5072315;28;49874;-63
2022/02/14 07:55:10;;;;;;;;;2.50;0.00;;;;;9.15;66.04;100174.19;5073649;28;50546;-62
2022/02/14 07:57:36;;;;;;;;;0.75;0.75;;;;;9.43;65.64;100220.09;5073755;27;49612;-63
2022/02/14 08:00:02;;;;;;;;;1.25;0.75;;;;;9.39;65.26;100213.03;5073533;27;49744;-62
2022/02/14 08:02:28;;;;;;;;;3.00;1.00;;;;;9.46;65.12;100226.28;5073956;28;49729;-63
2022/02/14 08:04:54;;;;;;;;;2.25;0.50;;;;;9.29;65.71;100195.41;5073532;28;50394;-63
2022/02/14 08:07:19;;;;;;;;;1.75;0.25;;;;;9.48;65.14;100242.00;5055332;27;50243;-63
2022/02/14 08:09:44;;;;;;;;;0.00;0.00;;;;;9.46;65.63;100222.78;5073439;27;49772;-63
2022/02/14 08:12:10;;;;;;;;;0.00;0.00;;;;;9.32;65.37;100200.69;5073718;27;49719;-62
2022/02/14 08:14:36;;;;;;;;;1.50;1.50;;;;;9.49;65.56;100237.66;5073194;28;51627;-63
2022/02/14 08:17:03;;;;;;;;;2.00;2.00;;;;;9.50;65.35;100242.91;5072344;27;49667;-63
2022/02/14 08:19:28;;;;;;;;;2.00;0.75;;;;;9.50;65.38;100252.50;5073111;27;49727;-62
2022/02/14 08:21:54;;;;;;;;;2.00;1.50;;;;;9.55;65.28;100248.22;5073251;28;49876;-62
2022/02/14 08:24:19;;;;;;;;;1.00;1.00;;;;;9.40;65.43;100227.91;5073040;27;50219;-62
2022/02/14 08:26:45;;;;;;;;;1.00;1.00;;;;;9.54;65.14;100260.44;5073196;27;49782;-63
2022/02/14 08:29:11;;;;;;;;;1.25;1.25;;;;;9.39;64.96;100234.00;5073040;28;49641;-62
2022/02/14 08:31:37;;;;;;;;;1.00;1.00;;;;;9.61;65.18;100259.69;5073113;28;49978;-62
2022/02/14 08:34:03;;;;;;;;;1.75;1.75;;;;;9.72;64.15;100273.84;5073075;28;49882;-62
2022/02/14 08:36:29;;;;;;;;;3.00;3.00;;;;;9.59;64.47;100257.91;5072851;28;49884;-62
2022/02/14 08:38:55;;;;;;;;;1.00;1.00;;;;;9.72;63.74;100276.47;5072899;28;49856;-62
2022/02/14 08:41:21;;;;;;;;;1.00;1.00;;;;;9.71;63.82;100261.59;5073125;28;49764;-62
2022/02/14 08:43:50;;;;;;;;;0.75;0.75;;;;;9.79;64.20;100284.44;5072874;28;49842;-63
2022/02/14 08:46:19;;;;;;;;;1.25;1.00;;;;;9.88;64.23;100292.47;5073037;28;49843;-62
2022/02/14 08:48:45;;;;;;;;;1.50;1.00;;;;;9.94;63.54;100279.44;5072818;28;49609;-63
2022/02/14 08:51:10;;;;;;;;;2.00;1.00;;;;;9.98;63.61;100290.00;5073180;28;49679;-62
2022/02/14 08:53:37;;;;;;;;;1.25;0.75;;;;;10.04;63.39;100289.22;5054157;28;50080;-63
2022/02/14 08:56:05;;;;;;;;;1.75;1.00;;;;;10.10;62.87;100293.66;5072885;28;49806;-62
2022/02/14 08:58:31;;;;;;;;;3.75;2.25;;;;;10.12;62.93;100298.06;5071245;28;49771;-62
2022/02/14 09:00:56;;;;;;;;;4.00;1.25;;;;;10.21;63.76;100302.56;5072788;28;49763;-62
2022/02/14 09:03:22;;;;;;;;;7.25;2.25;;;;;10.24;62.77;100305.31;5071388;28;49890;-62
2022/02/14 09:05:47;;;;;;;;;2.00;1.75;;;;;10.11;62.60;100283.19;5074663;27;49813;-65
2022/02/14 09:08:13;;;;;;;;;0.50;0.50;;;;;10.36;63.02;100296.72;5071358;27;49997;-63
2022/02/14 09:10:38;;;;;;;;;3.00;0.50;;;;;10.23;62.83;100251.97;5079260;27;50031;-62
2022/02/14 09:13:04;;;;;;;;;2.50;2.50;;;;;10.54;62.39;100275.97;5074328;27;50434;-63
2022/02/14 09:15:29;;;;;;;;;2.00;2.00;;;;;10.65;62.31;100287.50;5075182;27;49740;-63
2022/02/14 09:17:55;;;;;;;;;2.50;2.00;;;;;10.84;61.88;100285.97;5084099;27;49894;-66
2022/02/14 09:20:23;;;;;;;;;4.25;1.50;;;;;11.02;61.94;100280.06;5061031;28;50055;-63
2022/02/14 09:22:50;;;;;;;;;0.75;0.75;;;;;11.07;60.95;100287.13;5072870;28;50681;-63
2022/02/14 09:25:16;;;;;;;;;2.00;2.00;;;;;10.92;60.59;100246.69;5073639;27;49840;-63
2022/02/14 09:27:42;;;;;;;;;2.50;2.00;;;;;11.25;60.52;100288.19;5075831;27;49855;-63
2022/02/14 09:30:08;;;;;;;;;1.00;1.00;;;;;11.28;61.30;100272.44;5070583;28;49798;-63
2022/02/14 09:32:33;;;;;;;;;1.75;1.75;;;;;11.38;60.29;100282.19;5071146;27;50528;-63
2022/02/14 09:34:58;;;;;;;;;3.00;3.00;;;;;11.24;60.01;100247.03;5071800;28;49712;-63
2022/02/14 09:37:24;;;;;;;;;5.00;3.00;;;;;11.42;59.73;100271.72;5071979;27;49806;-63
2022/02/14 09:39:50;;;;;;;;;1.00;1.00;;;;;11.47;59.83;100272.63;5072386;28;49820;-62
2022/02/14 09:42:16;;;;;;;;;2.00;2.00;;;;;11.51;59.92;100270.94;5071967;28;50327;-63
2022/02/14 09:44:41;;;;;;;;;1.00;0.00;;;;;11.55;59.48;100282.34;5072041;28;49730;-63
2022/02/14 09:47:07;;;;;;;;;2.00;2.00;;;;;11.62;59.66;100277.16;5071777;28;49875;-63
2022/02/14 09:49:32;;;;;;;;;2.50;2.00;;;;;11.66;58.98;100284.19;5072137;27;50213;-63
2022/02/14 09:51:59;;;;;;;;;2.00;0.00;;;;;11.73;59.55;100282.50;5053492;28;51459;-63
2022/02/14 09:54:25;;;;;;;;;4.00;2.25;;;;;11.64;59.10;100259.66;5071902;28;49857;-63
2022/02/14 09:56:51;;;;;;;;;3.00;1.75;;;;;11.73;58.36;100298.28;5071813;27;49819;-63
2022/02/14 09:59:17;;;;;;;;;4.00;2.50;;;;;11.73;58.54;100287.78;5071883;28;49831;-64
2022/02/14 10:01:44;;;;;;;;;4.25;2.75;;;;;11.93;58.71;100303.75;5071230;28;51718;-63
2022/02/14 10:04:10;;;;;;;;;3.75;2.00;;;;;11.83;58.25;100273.00;5071562;28;49763;-63
2022/02/14 10:06:41;;;;;;;;;4.50;3.00;;;;;11.97;58.04;100271.34;5071677;27;49722;-64
2022/02/14 10:09:14;;;;;;;;;2.00;1.25;;;;;12.38;57.44;100318.13;5071936;28;49959;-64
2022/02/14 10:12:09;;;;;;;;;2.00;2.00;;;;;12.48;56.95;100318.19;5053316;28;50431;-63
2022/02/14 10:14:35;;;;;;;;;1.00;0.00;;;;;12.49;55.62;100325.19;5044766;28;49952;-63
2022/02/14 10:17:12;;;;;;;;;2.50;1.00;;;;;12.51;55.95;100346.28;5071378;28;49882;-63
2022/02/14 10:19:53;;;;;;;;;1.25;1.00;;;;;12.20;55.52;100276.75;5071684;27;49861;-63
2022/02/14 10:22:19;;;;;;;;;1.00;1.00;;;;;12.65;55.15;100343.75;5066109;28;51719;-63
2022/02/14 10:24:45;;;;;;;;;3.00;2.00;;;;;12.72;54.99;100337.59;5071334;28;49654;-64
2022/02/14 10:27:12;;;;;;;;;2.00;2.00;;;;;12.76;55.46;100335.00;5071480;28;49826;-63
2022/02/14 10:29:39;;;;;;;;;1.25;1.25;;;;;12.80;54.34;100342.03;5071217;27;50083;-63
2022/02/14 10:32:14;;;;;;;;;7.00;2.50;;;;;12.93;54.76;100342.09;5070973;27;49654;-63
2022/02/14 10:34:47;;;;;;;;;3.00;2.00;;;;;12.95;54.18;100345.66;5071298;28;49742;-63
2022/02/14 10:37:14;;;;;;;;;1.00;1.00;;;;;12.97;53.30;100342.13;5071236;28;49628;-63
2022/02/14 10:39:42;;;;;;;;;1.25;1.25;;;;;12.68;52.91;100320.91;5071182;28;49727;-63
2022/02/14 10:42:10;;;;;;;;;2.25;1.00;;;;;12.72;53.34;100346.38;5053058;28;52649;-63
2022/02/14 10:47:29;;;;;;;;;5.50;3.25;;;;;12.64;53.35;100356.00;5070658;28;49890;-62
2022/02/14 10:50:03;;;;;;;;;3.00;3.00;;;;;12.58;53.34;100353.34;5071106;28;49837;-63
2022/02/14 10:52:37;;;;;;;;;10.00;8.00;;;;;12.51;54.35;100344.50;5070614;28;50795;-64
2022/02/14 10:55:10;;;;;;;;;10.25;8.25;;;;;12.52;53.93;100342.75;5070686;28;49848;-63
2022/02/14 10:57:38;;;;;;;;;10.25;9.00;;;;;12.36;53.38;100325.13;5065177;28;49777;-62
2022/02/14 11:00:18;;;;;;;;;4.75;4.50;;;;;12.54;53.63;100354.19;5070778;28;51875;-63
2022/02/14 11:02:46;;;;;;;;;5.75;4.25;;;;;12.64;53.18;100352.47;5070341;28;49867;-63
2022/02/14 11:05:13;;;;;;;;;10.25;10.25;;;;;12.67;52.74;100355.16;5070618;28;49796;-63
2022/02/14 11:07:40;;;;;;;;;5.25;4.75;;;;;12.58;52.18;100348.06;5071110;28;50110;-63
2022/02/14 11:10:12;;;;;;;;;2.00;2.00;;;;;12.63;51.79;100348.97;5070838;28;49875;-62
2022/02/14 11:12:58;;;;;;;;;8.00;5.00;;;;;12.67;51.76;100348.13;5070431;28;50405;-63
2022/02/14 11:15:28;;;;;;;;;4.25;4.25;;;;;12.72;51.85;100335.84;5070634;28;49849;-63
2022/02/14 11:18:06;;;;;;;;;8.50;6.25;;;;;12.54;51.51;100298.88;5070095;28;49685;-64
2022/02/14 11:20:32;;;;;;;;;7.25;6.50;;;;;12.59;52.52;100295.41;5032518;28;49884;-64
2022/02/14 11:23:00;;;;;;;;;8.00;4.50;;;;;12.88;51.47;100334.19;5063608;28;49987;-63
2022/02/14 11:25:38;;;;;;;;;9.25;5.00;;;;;12.53;52.04;100258.50;5063819;28;49637;-63
2022/02/14 11:28:18;;;;;;;;;5.00;2.00;;;;;12.91;51.51;100323.66;5064566;28;49778;-63
2022/02/14 11:31:05;;;;;;;;;2.00;1.25;;;;;12.58;51.37;100264.69;5070343;28;49822;-62